createdAt,value
2023-03-28T00:00:57.825Z,2.93
2023-03-28T00:03:27.474Z,2.83
2023-03-28T00:06:01.950Z,2.89
2023-03-28T00:08:30.759Z,2.92
2023-03-28T00:11:20.840Z,2.83
2023-03-28T00:13:51.397Z,2.83
2023-03-28T00:16:19.061Z,2.83
2023-03-28T00:18:46.693Z,2.88
2023-03-28T00:21:24.555Z,2.82
2023-03-28T00:23:54.075Z,2.82
2023-03-28T00:26:27.036Z,2.83
2023-03-28T00:28:55.918Z,2.79
2023-03-28T00:31:26.127Z,2.73
2023-03-28T00:33:54.564Z,2.75
2023-03-28T00:36:26.878Z,2.77
2023-03-28T00:38:56.037Z,2.79
2023-03-28T00:41:26.897Z,2.75
2023-03-28T00:43:55.928Z,2.78
2023-03-28T00:46:30.876Z,2.81
2023-03-28T00:49:01.740Z,2.82
2023-03-28T00:51:38.460Z,2.78
2023-03-28T00:54:10.002Z,2.67
2023-03-28T00:56:38.676Z,2.67
2023-03-28T00:59:10.399Z,2.55
2023-03-28T01:01:38.064Z,2.51
2023-03-28T01:04:06.906Z,2.49
2023-03-28T01:06:40.508Z,2.53
2023-03-28T01:09:10.134Z,2.45
2023-03-28T01:11:40.881Z,2.42
2023-03-28T01:14:15.725Z,2.46
2023-03-28T01:16:46.015Z,2.45
2023-03-28T01:19:26.749Z,2.49
2023-03-28T01:22:14.001Z,2.46
2023-03-28T01:25:06.820Z,2.44
2023-03-28T01:27:52.290Z,2.50
2023-03-28T01:30:43.565Z,2.45
2023-03-28T01:33:49.157Z,2.37
2023-03-28T01:36:53.983Z,2.21
2023-03-28T01:39:33.465Z,2.21
2023-03-28T01:42:06.952Z,2.13
2023-03-28T01:44:53.562Z,2.24
2023-03-28T01:47:42.473Z,2.19
2023-03-28T01:50:20.077Z,2.10
2023-03-28T01:53:03.510Z,2.11
2023-03-28T01:55:41.596Z,2.12
2023-03-28T01:58:16.453Z,2.21
2023-03-28T02:00:50.834Z,2.20
2023-03-28T02:03:22.146Z,2.22
2023-03-28T02:05:52.835Z,2.12
2023-03-28T02:08:22.713Z,2.23
2023-03-28T02:10:52.268Z,2.22
2023-03-28T02:13:41.850Z,2.26
2023-03-28T02:16:11.394Z,2.22
2023-03-28T02:18:45.885Z,2.21
2023-03-28T02:21:25.498Z,2.22
2023-03-28T02:23:55.549Z,2.19
2023-03-28T02:26:26.477Z,2.03
2023-03-28T02:28:58.055Z,1.98
2023-03-28T02:31:26.288Z,1.88
2023-03-28T02:33:53.895Z,1.87
2023-03-28T02:36:40.489Z,1.98
2023-03-28T02:39:17.452Z,1.98
2023-03-28T02:42:10.050Z,1.95
2023-03-28T02:45:08.977Z,1.98
2023-03-28T02:47:44.665Z,1.87
2023-03-28T02:50:31.997Z,1.84
2023-03-28T02:53:34.935Z,1.83
2023-03-28T02:56:09.904Z,1.87
2023-03-28T02:58:48.811Z,1.75
2023-03-28T03:01:16.924Z,1.79
2023-03-28T03:03:44.439Z,1.80
2023-03-28T03:06:12.677Z,1.78
2023-03-28T03:08:40.748Z,1.77
2023-03-28T03:11:08.356Z,1.72
2023-03-28T03:13:35.866Z,1.72
2023-03-28T03:16:04.247Z,1.71
2023-03-28T03:18:32.551Z,1.67
2023-03-28T03:21:01.795Z,1.74
2023-03-28T03:23:29.692Z,1.79
2023-03-28T03:25:57.775Z,1.67
2023-03-28T03:28:25.774Z,1.67
2023-03-28T03:30:53.720Z,1.75
2023-03-28T03:33:21.580Z,1.63
2023-03-28T03:35:50.110Z,1.65
2023-03-28T03:38:18.632Z,1.58
2023-03-28T03:40:46.163Z,1.65
2023-03-28T03:43:14.793Z,1.65
2023-03-28T03:45:46.031Z,1.62
2023-03-28T03:48:13.865Z,1.61
2023-03-28T03:50:41.934Z,1.59
2023-03-28T03:53:10.455Z,1.67
2023-03-28T03:55:40.097Z,1.68
2023-03-28T03:58:08.339Z,1.66
2023-03-28T04:00:37.768Z,1.72
2023-03-28T04:03:06.626Z,1.79
2023-03-28T04:05:36.498Z,1.72
2023-03-28T04:08:04.609Z,1.74
2023-03-28T04:10:32.682Z,1.66
2023-03-28T04:13:00.638Z,1.60
2023-03-28T04:15:28.609Z,1.65
2023-03-28T04:17:57.415Z,1.65
2023-03-28T04:20:25.771Z,1.70
2023-03-28T04:22:56.233Z,1.75
2023-03-28T04:25:24.900Z,1.71
2023-03-28T04:27:54.712Z,1.76
2023-03-28T04:30:24.447Z,1.80
2023-03-28T04:32:54.788Z,1.79
2023-03-28T04:35:24.293Z,1.84
2023-03-28T04:37:53.854Z,1.79
2023-03-28T04:40:21.803Z,1.83
2023-03-28T04:42:50.366Z,1.85
2023-03-28T04:45:18.970Z,1.89
2023-03-28T04:47:48.198Z,1.88
2023-03-28T04:50:16.690Z,1.87
2023-03-28T04:52:45.714Z,1.86
2023-03-28T04:55:16.117Z,1.87
2023-03-28T04:57:44.472Z,1.86
2023-03-28T05:00:13.339Z,1.89
2023-03-28T05:02:47.915Z,1.89
2023-03-28T05:05:17.349Z,1.90
2023-03-28T05:07:45.873Z,1.94
2023-03-28T05:10:14.291Z,1.93
2023-03-28T05:12:42.285Z,1.87
2023-03-28T05:15:10.649Z,1.93
2023-03-28T05:17:38.589Z,1.96
2023-03-28T05:20:11.117Z,2.00
2023-03-28T05:22:39.662Z,2.12
2023-03-28T05:25:08.879Z,2.17
2023-03-28T05:27:38.794Z,2.25
2023-03-28T05:30:08.304Z,2.19
2023-03-28T05:32:42.324Z,2.22
2023-03-28T05:35:11.819Z,2.22
2023-03-28T05:37:42.615Z,2.27
2023-03-28T05:40:13.214Z,2.30
2023-03-28T05:42:41.504Z,2.23
2023-03-28T05:45:11.569Z,2.28
2023-03-28T05:47:39.817Z,2.22
2023-03-28T05:50:08.627Z,2.24
2023-03-28T05:52:36.455Z,2.31
2023-03-28T05:55:06.708Z,2.38
2023-03-28T05:57:34.866Z,2.40
2023-03-28T06:00:13.872Z,2.46
2023-03-28T06:02:46.036Z,2.47
2023-03-28T06:05:14.931Z,2.47
2023-03-28T06:07:43.284Z,2.58
2023-03-28T06:10:13.333Z,2.69
2023-03-28T06:12:41.959Z,2.85
2023-03-28T06:15:10.989Z,3.13
2023-03-28T06:17:39.236Z,3.27
2023-03-28T06:20:09.964Z,3.32
2023-03-28T06:22:38.485Z,3.65
2023-03-28T06:25:07.030Z,3.93
2023-03-28T06:27:35.028Z,4.13
2023-03-28T06:30:04.886Z,4.40
2023-03-28T06:32:32.878Z,4.67
2023-03-28T06:35:00.749Z,4.65
2023-03-28T06:37:28.362Z,4.47
2023-03-28T06:39:56.992Z,4.84
2023-03-28T06:42:24.877Z,5.14
2023-03-28T06:44:54.304Z,5.40
2023-03-28T06:47:23.613Z,5.59
2023-03-28T06:49:51.462Z,5.67
2023-03-28T06:52:19.816Z,5.92
2023-03-28T06:54:48.649Z,5.87
2023-03-28T06:57:16.958Z,5.79
2023-03-28T06:59:44.885Z,5.82
2023-03-28T07:02:13.375Z,5.90
2023-03-28T07:04:41.856Z,5.89
2023-03-28T07:07:10.056Z,6.25
2023-03-28T07:09:37.733Z,6.22
2023-03-28T07:12:06.586Z,6.63
2023-03-28T07:14:34.634Z,6.54
2023-03-28T07:17:02.300Z,6.86
2023-03-28T07:19:30.435Z,7.00
2023-03-28T07:21:58.002Z,7.16
2023-03-28T07:24:25.597Z,7.43
2023-03-28T07:27:01.295Z,7.66
2023-03-28T07:29:39.736Z,7.71
2023-03-28T07:32:07.651Z,8.08
2023-03-28T07:34:35.253Z,8.45
2023-03-28T07:37:03.612Z,8.54
2023-03-28T07:39:34.546Z,8.79
2023-03-28T07:42:03.084Z,9.00
2023-03-28T07:44:30.726Z,9.16
2023-03-28T07:46:59.242Z,9.33
2023-03-28T07:49:26.771Z,9.42
2023-03-28T07:51:54.416Z,9.51
2023-03-28T07:54:22.479Z,9.43
2023-03-28T07:56:51.653Z,9.37
2023-03-28T07:59:19.649Z,9.57
2023-03-28T08:01:48.508Z,9.22
2023-03-28T08:04:19.077Z,9.81
2023-03-28T08:06:48.976Z,9.12
2023-03-28T08:09:17.057Z,9.21
2023-03-28T08:11:45.329Z,9.09
2023-03-28T08:14:15.773Z,9.44
2023-03-28T08:16:45.220Z,9.47
2023-03-28T08:19:13.729Z,9.91
2023-03-28T08:21:44.728Z,10.27
2023-03-28T08:24:19.476Z,10.60
2023-03-28T08:26:50.741Z,10.59
2023-03-28T08:29:18.963Z,10.35
2023-03-28T08:31:48.050Z,10.03
2023-03-28T08:34:16.313Z,9.11
2023-03-28T08:36:44.613Z,8.41
2023-03-28T08:39:14.050Z,7.98
2023-03-28T08:42:00.653Z,7.50
2023-03-28T08:44:43.254Z,7.27
2023-03-28T08:47:23.739Z,7.18
2023-03-28T08:50:02.816Z,6.90
2023-03-28T08:52:31.755Z,7.03
2023-03-28T08:55:20.922Z,6.81
2023-03-28T08:57:53.236Z,7.14
2023-03-28T09:00:28.735Z,7.05
2023-03-28T09:02:57.183Z,7.03
2023-03-28T09:05:48.573Z,6.76
2023-03-28T09:08:29.441Z,7.95
2023-03-28T09:11:19.838Z,7.75
2023-03-28T09:14:12.141Z,7.40
2023-03-28T09:16:46.547Z,7.04
2023-03-28T09:19:53.292Z,7.07
2023-03-28T09:22:57.372Z,6.81
2023-03-28T09:25:42.024Z,6.76
2023-03-28T09:28:41.626Z,6.86
2023-03-28T09:31:13.253Z,6.70
2023-03-28T09:33:45.920Z,6.70
2023-03-28T09:36:20.796Z,6.48
2023-03-28T09:39:07.437Z,6.41
2023-03-28T09:41:55.062Z,6.38
2023-03-28T09:44:51.027Z,6.42
2023-03-28T09:47:26.675Z,6.24
2023-03-28T09:50:05.528Z,6.31
2023-03-28T09:52:38.018Z,6.51
2023-03-28T09:55:06.370Z,6.68
2023-03-28T09:58:12.694Z,6.82
2023-03-28T10:00:49.323Z,6.86
2023-03-28T10:03:29.555Z,6.90
2023-03-28T10:06:17.181Z,7.90
2023-03-28T10:08:45.398Z,7.81
2023-03-28T10:11:19.006Z,8.35
2023-03-28T10:13:48.866Z,7.96
2023-03-28T10:16:30.863Z,7.89
2023-03-28T10:18:58.886Z,7.68
2023-03-28T10:21:32.457Z,7.39
2023-03-28T10:24:08.827Z,7.21
2023-03-28T10:26:36.590Z,6.90
2023-03-28T10:29:08.642Z,6.74
2023-03-28T10:31:39.018Z,7.25
2023-03-28T10:34:25.886Z,7.67
2023-03-28T10:36:53.989Z,7.54
2023-03-28T10:39:26.462Z,6.95
2023-03-28T10:41:59.003Z,6.64
2023-03-28T10:44:36.617Z,7.66
2023-03-28T10:47:17.981Z,8.23
2023-03-28T10:49:48.806Z,8.82
2023-03-28T10:52:42.300Z,9.31
2023-03-28T10:55:20.250Z,9.40
2023-03-28T10:58:07.858Z,10.05
2023-03-28T11:01:01.439Z,10.06
2023-03-28T11:03:37.712Z,9.52
2023-03-28T11:06:25.934Z,8.98
2023-03-28T11:09:11.619Z,8.16
2023-03-28T11:11:58.325Z,7.28
2023-03-28T11:14:59.355Z,6.45
2023-03-28T11:17:47.373Z,7.67
2023-03-28T11:20:43.217Z,8.26
2023-03-28T11:23:21.785Z,8.27
2023-03-28T11:26:25.339Z,8.89
2023-03-28T11:28:58.855Z,9.70
2023-03-28T11:31:32.507Z,9.59
2023-03-28T11:34:12.808Z,9.64
2023-03-28T11:37:01.939Z,9.86
2023-03-28T11:39:52.478Z,10.40
2023-03-28T11:42:29.311Z,10.37
2023-03-28T11:45:27.926Z,10.63
2023-03-28T11:48:18.582Z,10.65
2023-03-28T11:50:58.317Z,10.89
2023-03-28T11:53:32.386Z,11.03
2023-03-28T11:56:38.842Z,11.23
2023-03-28T11:59:13.123Z,11.37
2023-03-28T12:01:46.109Z,10.88
2023-03-28T12:04:21.557Z,9.93
2023-03-28T12:07:03.518Z,9.12
2023-03-28T12:09:50.495Z,8.56
2023-03-28T12:12:38.853Z,7.99
2023-03-28T12:15:34.184Z,7.25
2023-03-28T12:18:07.770Z,6.80
2023-03-28T12:20:36.580Z,6.67
2023-03-28T12:23:15.348Z,6.75
2023-03-28T12:26:33.544Z,7.54
2023-03-28T12:29:16.214Z,8.36
2023-03-28T12:31:56.490Z,8.18
2023-03-28T12:34:29.800Z,7.64
2023-03-28T12:37:12.359Z,6.86
2023-03-28T12:39:46.193Z,6.48
2023-03-28T12:42:19.450Z,6.28
2023-03-28T12:45:02.346Z,6.63
2023-03-28T12:47:36.701Z,6.31
2023-03-28T12:50:10.680Z,6.53
2023-03-28T12:52:42.217Z,6.46
2023-03-28T12:55:26.120Z,6.97
2023-03-28T12:58:20.852Z,7.35
2023-03-28T13:01:06.213Z,7.49
2023-03-28T13:04:01.505Z,7.77
2023-03-28T13:06:50.475Z,7.65
2023-03-28T13:09:41.480Z,7.69
2023-03-28T13:12:29.225Z,7.81
2023-03-28T13:15:17.368Z,8.07
2023-03-28T13:18:09.050Z,7.98
2023-03-28T13:20:45.888Z,7.63
2023-03-28T13:23:17.902Z,6.99
2023-03-28T13:26:15.052Z,6.46
2023-03-28T13:28:52.677Z,6.45
2023-03-28T13:31:24.338Z,6.56
2023-03-28T13:33:55.354Z,6.42
2023-03-28T13:36:26.060Z,6.99
2023-03-28T13:39:10.482Z,7.16
2023-03-28T13:41:41.327Z,7.38
2023-03-28T13:44:18.932Z,7.27
2023-03-28T13:46:51.034Z,7.44
2023-03-28T13:49:44.677Z,7.70
2023-03-28T13:52:24.105Z,7.78
2023-03-28T13:54:54.583Z,8.05
2023-03-28T13:57:26.436Z,7.98
2023-03-28T14:00:05.452Z,7.96
2023-03-28T14:02:54.860Z,8.08
2023-03-28T14:05:22.708Z,8.42
2023-03-28T14:07:52.096Z,8.15
2023-03-28T14:10:39.485Z,8.26
2023-03-28T14:13:13.834Z,8.05
2023-03-28T14:15:43.643Z,7.51
2023-03-28T14:18:19.022Z,6.76
2023-03-28T14:20:46.905Z,6.61
2023-03-28T14:23:29.898Z,6.96
2023-03-28T14:26:00.894Z,7.28
2023-03-28T14:28:30.315Z,7.31
2023-03-28T14:30:58.816Z,7.48
2023-03-28T14:33:32.182Z,7.59
2023-03-28T14:36:06.218Z,7.56
2023-03-28T14:38:36.515Z,7.58
2023-03-28T14:41:19.388Z,7.62
2023-03-28T14:43:57.557Z,7.69
2023-03-28T14:46:29.609Z,7.79
2023-03-28T14:49:01.294Z,7.86
2023-03-28T14:51:38.967Z,7.63
2023-03-28T14:54:06.532Z,7.54
2023-03-28T14:56:34.441Z,7.72
2023-03-28T14:59:04.136Z,7.72
2023-03-28T15:01:33.999Z,7.76
2023-03-28T15:04:06.819Z,7.83
2023-03-28T15:06:35.458Z,7.81
2023-03-28T15:09:12.251Z,7.86
2023-03-28T15:11:43.710Z,7.82
2023-03-28T15:14:24.259Z,7.48
2023-03-28T15:16:51.977Z,7.59
2023-03-28T15:19:25.263Z,7.35
2023-03-28T15:22:00.517Z,7.30
2023-03-28T15:24:29.081Z,7.11
2023-03-28T15:27:02.045Z,6.81
2023-03-28T15:29:34.818Z,6.69
2023-03-28T15:32:06.300Z,6.64
2023-03-28T15:34:44.792Z,6.48
2023-03-28T15:37:18.634Z,6.43
2023-03-28T15:39:49.671Z,6.33
2023-03-28T15:42:20.185Z,6.28
2023-03-28T15:44:56.963Z,6.19
2023-03-28T15:47:30.255Z,6.11
2023-03-28T15:50:04.993Z,5.97
2023-03-28T15:52:36.551Z,6.00
2023-03-28T15:55:06.347Z,6.08
2023-03-28T15:57:34.317Z,6.15
2023-03-28T16:00:01.872Z,6.18
2023-03-28T16:02:41.138Z,6.27
2023-03-28T16:05:15.069Z,6.44
2023-03-28T16:07:51.334Z,6.58
2023-03-28T16:10:21.485Z,6.70
2023-03-28T16:12:52.523Z,6.80
2023-03-28T16:15:22.060Z,6.90
2023-03-28T16:17:50.481Z,7.06
2023-03-28T16:20:22.437Z,7.05
2023-03-28T16:22:50.832Z,7.13
2023-03-28T16:25:18.380Z,7.15
2023-03-28T16:27:45.940Z,7.18
2023-03-28T16:30:25.347Z,7.18
2023-03-28T16:32:52.961Z,7.05
2023-03-28T16:35:20.841Z,6.71
2023-03-28T16:37:48.906Z,6.50
2023-03-28T16:40:16.451Z,6.34
2023-03-28T16:42:44.402Z,6.13
2023-03-28T16:45:15.523Z,5.91
2023-03-28T16:47:43.074Z,5.81
2023-03-28T16:50:11.098Z,5.76
2023-03-28T16:52:40.475Z,5.70
2023-03-28T16:55:14.058Z,5.62
2023-03-28T16:57:42.558Z,5.53
2023-03-28T17:00:14.196Z,5.43
2023-03-28T17:02:42.086Z,5.36
2023-03-28T17:05:09.985Z,5.28
2023-03-28T17:07:37.492Z,5.17
2023-03-28T17:10:05.820Z,5.17
2023-03-28T17:12:34.306Z,5.07
2023-03-28T17:15:02.123Z,4.98
2023-03-28T17:17:30.017Z,4.87
2023-03-28T17:19:57.588Z,4.68
2023-03-28T17:22:25.633Z,4.62
2023-03-28T17:24:55.668Z,4.56
2023-03-28T17:27:23.543Z,4.50
2023-03-28T17:29:51.833Z,4.51
2023-03-28T17:32:19.915Z,4.48
2023-03-28T17:34:47.919Z,4.34
2023-03-28T17:37:15.810Z,4.28
2023-03-28T17:39:43.640Z,4.29
2023-03-28T17:42:11.136Z,4.22
2023-03-28T17:44:38.640Z,4.24
2023-03-28T17:47:07.659Z,4.20
2023-03-28T17:49:36.113Z,4.19
2023-03-28T17:52:04.202Z,4.19
2023-03-28T17:54:32.631Z,4.17
2023-03-28T17:57:00.276Z,4.20
2023-03-28T17:59:29.149Z,4.18
2023-03-28T18:01:57.315Z,4.15
2023-03-28T18:04:25.312Z,4.14
2023-03-28T18:06:54.530Z,4.12
2023-03-28T18:09:22.497Z,4.15
2023-03-28T18:11:50.717Z,4.11
2023-03-28T18:14:18.292Z,4.09
2023-03-28T18:16:46.138Z,4.07
2023-03-28T18:19:17.835Z,4.08
2023-03-28T18:21:48.813Z,4.10
2023-03-28T18:24:16.643Z,4.07
2023-03-28T18:26:44.151Z,4.00
2023-03-28T18:29:11.847Z,3.95
2023-03-28T18:31:40.602Z,3.94
2023-03-28T18:34:08.421Z,3.93
2023-03-28T18:36:41.046Z,3.98
2023-03-28T18:39:10.441Z,3.95
2023-03-28T18:41:38.541Z,3.94
2023-03-28T18:44:06.257Z,3.99
2023-03-28T18:46:34.399Z,4.03
2023-03-28T18:49:02.072Z,4.10
2023-03-28T18:51:29.590Z,4.09
2023-03-28T18:53:57.694Z,4.10
2023-03-28T18:56:25.631Z,4.04
2023-03-28T18:58:53.491Z,4.02
2023-03-28T19:01:23.153Z,4.01
2023-03-28T19:03:51.400Z,4.01
2023-03-28T19:06:19.028Z,3.97
2023-03-28T19:08:47.643Z,3.91
2023-03-28T19:11:16.979Z,3.90
2023-03-28T19:13:44.603Z,3.88
2023-03-28T19:16:18.594Z,3.83
2023-03-28T19:18:47.024Z,3.75
2023-03-28T19:21:15.113Z,3.75
2023-03-28T19:23:42.844Z,3.78
2023-03-28T19:26:12.735Z,3.74
2023-03-28T19:28:40.833Z,3.69
2023-03-28T19:31:11.037Z,3.64
2023-03-28T19:33:40.926Z,3.60
2023-03-28T19:36:10.416Z,3.59
2023-03-28T19:38:39.056Z,3.65
2023-03-28T19:41:14.440Z,3.68
2023-03-28T19:43:44.272Z,3.52
2023-03-28T19:46:17.769Z,3.55
2023-03-28T19:48:45.854Z,3.52
2023-03-28T19:51:14.265Z,3.58
2023-03-28T19:53:42.767Z,3.50
2023-03-28T19:56:12.102Z,3.42
2023-03-28T19:58:40.233Z,3.45
2023-03-28T20:01:07.867Z,3.32
2023-03-28T20:03:35.955Z,3.32
2023-03-28T20:06:07.291Z,3.35
2023-03-28T20:08:35.634Z,3.16
2023-03-28T20:11:07.298Z,3.11
2023-03-28T20:13:34.946Z,3.17
2023-03-28T20:16:05.152Z,3.27
2023-03-28T20:18:33.096Z,3.20
2023-03-28T20:21:03.436Z,3.26
2023-03-28T20:23:33.211Z,3.30
2023-03-28T20:26:11.237Z,3.36
2023-03-28T20:28:40.084Z,3.36
2023-03-28T20:31:12.247Z,3.33
2023-03-28T20:33:40.886Z,3.23
2023-03-28T20:36:08.899Z,3.20
2023-03-28T20:38:36.408Z,3.14
2023-03-28T20:41:04.572Z,3.10
2023-03-28T20:43:36.768Z,3.05
2023-03-28T20:46:04.824Z,3.02
2023-03-28T20:48:36.445Z,3.00
2023-03-28T20:51:14.379Z,3.04
2023-03-28T20:53:47.569Z,2.93
2023-03-28T20:56:17.342Z,2.90
2023-03-28T20:58:45.326Z,2.89
2023-03-28T21:01:16.548Z,2.83
2023-03-28T21:03:51.822Z,2.82
2023-03-28T21:06:26.006Z,2.78
2023-03-28T21:08:55.927Z,2.81
2023-03-28T21:11:26.545Z,2.78
2023-03-28T21:13:55.933Z,2.78
2023-03-28T21:16:24.059Z,2.75
2023-03-28T21:18:52.144Z,2.77
2023-03-28T21:21:21.181Z,2.74
2023-03-28T21:23:48.904Z,2.66
2023-03-28T21:26:21.426Z,2.70
2023-03-28T21:28:49.949Z,2.68
2023-03-28T21:31:21.012Z,2.69
2023-03-28T21:33:49.267Z,2.81
2023-03-28T21:36:19.140Z,2.83
2023-03-28T21:38:47.442Z,2.84
2023-03-28T21:41:16.656Z,2.80
2023-03-28T21:43:44.536Z,2.83
2023-03-28T21:46:12.751Z,2.82
2023-03-28T21:48:42.169Z,2.91
2023-03-28T21:51:09.695Z,2.85
2023-03-28T21:53:37.896Z,2.90
2023-03-28T21:56:06.807Z,2.87
2023-03-28T21:58:34.787Z,2.88
2023-03-28T22:01:04.270Z,2.81
2023-03-28T22:03:37.067Z,2.78
2023-03-28T22:06:05.127Z,2.80
2023-03-28T22:08:33.150Z,2.78
2023-03-28T22:11:03.712Z,2.75
2023-03-28T22:13:31.578Z,2.52
2023-03-28T22:16:00.045Z,2.50
2023-03-28T22:18:30.693Z,2.48
2023-03-28T22:21:02.753Z,2.39
2023-03-28T22:23:31.067Z,2.37
2023-03-28T22:25:58.828Z,2.31
2023-03-28T22:28:26.708Z,2.11
2023-03-28T22:30:55.708Z,2.24
2023-03-28T22:33:25.472Z,2.23
2023-03-28T22:35:53.457Z,2.29
2023-03-28T22:38:21.776Z,2.18
2023-03-28T22:40:49.614Z,2.10
2023-03-28T22:43:17.078Z,2.08
2023-03-28T22:45:45.112Z,2.13
2023-03-28T22:48:15.490Z,1.92
2023-03-28T22:50:47.255Z,1.82
2023-03-28T22:53:15.516Z,1.85
2023-03-28T22:55:44.127Z,1.81
2023-03-28T22:58:12.599Z,1.84
2023-03-28T23:00:40.506Z,1.83
2023-03-28T23:03:08.327Z,1.84
2023-03-28T23:05:37.482Z,1.69
2023-03-28T23:08:06.442Z,1.69
2023-03-28T23:10:34.453Z,1.69
2023-03-28T23:13:02.168Z,1.80
2023-03-28T23:15:30.210Z,1.88
2023-03-28T23:17:58.646Z,1.91
2023-03-28T23:20:26.616Z,1.88
2023-03-28T23:22:54.981Z,1.81
2023-03-28T23:25:22.586Z,1.83
2023-03-28T23:27:50.623Z,1.81
2023-03-28T23:30:18.802Z,1.72
2023-03-28T23:32:46.380Z,1.78
2023-03-28T23:35:14.097Z,1.76
2023-03-28T23:37:41.949Z,1.72
2023-03-28T23:40:15.010Z,1.83
2023-03-28T23:42:44.863Z,1.78
2023-03-28T23:45:15.077Z,1.88
2023-03-28T23:47:44.281Z,1.93
2023-03-28T23:50:12.461Z,1.91
2023-03-28T23:52:40.158Z,1.82
2023-03-28T23:55:09.388Z,1.77
2023-03-28T23:57:37.308Z,1.78
